sensor_id;sensor_type;location;lat;lon;timestamp;pressure;altitude;pressure_sealevel;temperature;humidity
39177;BME280;24904;52.208;21.192;2022-08-01T00:00:10;100144.02;;;15.62;91.82
39177;BME280;24904;52.208;21.192;2022-08-01T00:05:14;100144.58;;;15.62;91.83
39177;BME280;24904;52.208;21.192;2022-08-01T00:10:18;100141.98;;;15.59;91.68
39177;BME280;24904;52.208;21.192;2022-08-01T00:15:21;100137.09;;;15.57;91.85
39177;BME280;24904;52.208;21.192;2022-08-01T00:20:24;100129.23;;;15.55;91.74
39177;BME280;24904;52.208;21.192;2022-08-01T00:25:27;100127.02;;;15.54;91.95
39177;BME280;24904;52.208;21.192;2022-08-01T00:30:31;100122.96;;;15.56;92.03
39177;BME280;24904;52.208;21.192;2022-08-01T00:35:34;100126.33;;;15.59;91.98
39177;BME280;24904;52.208;21.192;2022-08-01T00:40:37;100127.20;;;15.58;91.89
39177;BME280;24904;52.208;21.192;2022-08-01T00:45:40;100120.95;;;15.59;91.86
39177;BME280;24904;52.208;21.192;2022-08-01T00:50:44;100119.15;;;15.56;91.82
39177;BME280;24904;52.208;21.192;2022-08-01T00:55:47;100122.38;;;15.58;91.97
39177;BME280;24904;52.208;21.192;2022-08-01T01:00:51;100118.11;;;15.58;91.96
39177;BME280;24904;52.208;21.192;2022-08-01T01:05:59;100124.84;;;15.59;92.05
39177;BME280;24904;52.208;21.192;2022-08-01T01:11:10;100124.67;;;15.60;91.90
39177;BME280;24904;52.208;21.192;2022-08-01T01:16:19;100123.79;;;15.61;91.87
39177;BME280;24904;52.208;21.192;2022-08-01T01:21:42;100122.45;;;15.60;91.80
39177;BME280;24904;52.208;21.192;2022-08-01T01:26:54;100123.15;;;15.62;91.88
39177;BME280;24904;52.208;21.192;2022-08-01T01:32:13;100118.81;;;15.60;91.83
39177;BME280;24904;52.208;21.192;2022-08-01T01:37:20;100116.77;;;15.59;91.56
39177;BME280;24904;52.208;21.192;2022-08-01T01:42:25;100114.25;;;15.57;91.41
39177;BME280;24904;52.208;21.192;2022-08-01T01:47:30;100116.11;;;15.54;91.40
39177;BME280;24904;52.208;21.192;2022-08-01T01:52:34;100114.24;;;15.52;91.31
39177;BME280;24904;52.208;21.192;2022-08-01T01:57:39;100114.42;;;15.51;91.26
39177;BME280;24904;52.208;21.192;2022-08-01T02:02:44;100117.67;;;15.49;91.02
39177;BME280;24904;52.208;21.192;2022-08-01T02:07:47;100119.70;;;15.45;91.06
39177;BME280;24904;52.208;21.192;2022-08-01T02:12:51;100121.20;;;15.40;91.03
39177;BME280;24904;52.208;21.192;2022-08-01T02:17:56;100120.80;;;15.39;91.06
39177;BME280;24904;52.208;21.192;2022-08-01T02:23:04;100115.02;;;15.36;90.89
39177;BME280;24904;52.208;21.192;2022-08-01T02:28:12;100116.13;;;15.35;91.08
39177;BME280;24904;52.208;21.192;2022-08-01T02:33:18;100114.08;;;15.34;90.88
39177;BME280;24904;52.208;21.192;2022-08-01T02:38:25;100123.41;;;15.32;91.06
39177;BME280;24904;52.208;21.192;2022-08-01T02:43:30;100126.05;;;15.30;90.78
39177;BME280;24904;52.208;21.192;2022-08-01T02:48:37;100124.92;;;15.26;90.50
39177;BME280;24904;52.208;21.192;2022-08-01T02:53:42;100129.63;;;15.23;90.43
39177;BME280;24904;52.208;21.192;2022-08-01T02:58:47;100128.64;;;15.19;90.39
39177;BME280;24904;52.208;21.192;2022-08-01T03:03:51;100129.71;;;15.14;90.25
39177;BME280;24904;52.208;21.192;2022-08-01T03:08:56;100131.66;;;15.11;90.12
39177;BME280;24904;52.208;21.192;2022-08-01T03:14:01;100135.98;;;15.05;90.00
39177;BME280;24904;52.208;21.192;2022-08-01T03:19:05;100125.70;;;14.98;89.90
39177;BME280;24904;52.208;21.192;2022-08-01T03:24:10;100123.39;;;14.95;90.04
39177;BME280;24904;52.208;21.192;2022-08-01T03:29:17;100122.23;;;14.90;89.91
39177;BME280;24904;52.208;21.192;2022-08-01T03:34:20;100127.79;;;14.88;89.99
39177;BME280;24904;52.208;21.192;2022-08-01T03:39:30;100135.30;;;14.87;89.87
39177;BME280;24904;52.208;21.192;2022-08-01T03:44:36;100144.02;;;14.85;89.87
39177;BME280;24904;52.208;21.192;2022-08-01T03:49:44;100150.08;;;14.80;89.65
39177;BME280;24904;52.208;21.192;2022-08-01T03:54:52;100157.52;;;14.78;89.85
39177;BME280;24904;52.208;21.192;2022-08-01T03:59:59;100159.16;;;14.79;90.01
39177;BME280;24904;52.208;21.192;2022-08-01T04:05:04;100161.04;;;14.81;90.18
39177;BME280;24904;52.208;21.192;2022-08-01T04:10:08;100163.45;;;14.83;90.25
39177;BME280;24904;52.208;21.192;2022-08-01T04:15:11;100172.98;;;14.87;90.41
39177;BME280;24904;52.208;21.192;2022-08-01T04:20:15;100175.79;;;14.90;90.44
39177;BME280;24904;52.208;21.192;2022-08-01T04:25:23;100183.84;;;14.92;90.45
39177;BME280;24904;52.208;21.192;2022-08-01T04:30:31;100184.23;;;14.93;90.23
39177;BME280;24904;52.208;21.192;2022-08-01T04:35:37;100187.14;;;14.94;90.52
39177;BME280;24904;52.208;21.192;2022-08-01T04:40:43;100185.68;;;14.98;90.69
39177;BME280;24904;52.208;21.192;2022-08-01T04:45:48;100188.23;;;15.02;90.73
39177;BME280;24904;52.208;21.192;2022-08-01T04:50:53;100188.73;;;15.08;90.95
39177;BME280;24904;52.208;21.192;2022-08-01T04:55:57;100191.25;;;15.09;90.84
39177;BME280;24904;52.208;21.192;2022-08-01T05:01:00;100194.42;;;15.15;90.91
39177;BME280;24904;52.208;21.192;2022-08-01T05:06:04;100199.91;;;15.19;90.84
39177;BME280;24904;52.208;21.192;2022-08-01T05:11:07;100201.38;;;15.24;90.74
39177;BME280;24904;52.208;21.192;2022-08-01T05:16:10;100202.90;;;15.28;90.78
39177;BME280;24904;52.208;21.192;2022-08-01T05:21:13;100201.43;;;15.31;90.84
39177;BME280;24904;52.208;21.192;2022-08-01T05:26:16;100206.36;;;15.37;91.01
39177;BME280;24904;52.208;21.192;2022-08-01T05:31:19;100212.21;;;15.43;91.04
39177;BME280;24904;52.208;21.192;2022-08-01T05:36:22;100210.52;;;15.47;90.71
39177;BME280;24904;52.208;21.192;2022-08-01T05:41:25;100219.29;;;15.49;90.49
39177;BME280;24904;52.208;21.192;2022-08-01T05:46:29;100219.73;;;15.51;90.37
39177;BME280;24904;52.208;21.192;2022-08-01T05:51:33;100224.65;;;15.50;90.09
39177;BME280;24904;52.208;21.192;2022-08-01T05:56:36;100219.52;;;15.49;90.01
39177;BME280;24904;52.208;21.192;2022-08-01T06:01:39;100222.48;;;15.52;90.04
39177;BME280;24904;52.208;21.192;2022-08-01T06:06:42;100229.77;;;15.58;90.03
39177;BME280;24904;52.208;21.192;2022-08-01T06:11:45;100229.56;;;15.71;90.27
39177;BME280;24904;52.208;21.192;2022-08-01T06:16:48;100227.30;;;15.87;90.40
39177;BME280;24904;52.208;21.192;2022-08-01T06:21:51;100225.77;;;16.02;89.93
39177;BME280;24904;52.208;21.192;2022-08-01T06:26:54;100229.73;;;16.18;89.48
39177;BME280;24904;52.208;21.192;2022-08-01T06:31:57;100232.02;;;16.35;89.09
39177;BME280;24904;52.208;21.192;2022-08-01T06:37:00;100227.63;;;16.53;88.75
39177;BME280;24904;52.208;21.192;2022-08-01T06:42:04;100226.24;;;16.67;88.15
39177;BME280;24904;52.208;21.192;2022-08-01T06:47:07;100234.42;;;16.81;87.37
39177;BME280;24904;52.208;21.192;2022-08-01T06:52:10;100231.61;;;16.93;86.83
39177;BME280;24904;52.208;21.192;2022-08-01T06:57:13;100234.71;;;17.10;87.29
39177;BME280;24904;52.208;21.192;2022-08-01T07:02:16;100230.83;;;17.28;87.50
39177;BME280;24904;52.208;21.192;2022-08-01T07:07:19;100232.55;;;17.46;86.84
39177;BME280;24904;52.208;21.192;2022-08-01T07:12:22;100230.23;;;17.63;86.36
39177;BME280;24904;52.208;21.192;2022-08-01T07:17:25;100229.52;;;17.80;85.47
39177;BME280;24904;52.208;21.192;2022-08-01T07:22:28;100227.40;;;17.97;85.12
39177;BME280;24904;52.208;21.192;2022-08-01T07:27:32;100225.76;;;18.15;84.17
39177;BME280;24904;52.208;21.192;2022-08-01T07:32:35;100221.98;;;18.30;83.38
39177;BME280;24904;52.208;21.192;2022-08-01T07:37:38;100219.35;;;18.51;82.55
39177;BME280;24904;52.208;21.192;2022-08-01T07:42:41;100226.18;;;18.73;81.18
39177;BME280;24904;52.208;21.192;2022-08-01T07:47:45;100228.55;;;18.92;80.13
39177;BME280;24904;52.208;21.192;2022-08-01T07:52:48;100224.28;;;19.10;79.11
39177;BME280;24904;52.208;21.192;2022-08-01T07:57:52;100222.79;;;19.24;77.71
39177;BME280;24904;52.208;21.192;2022-08-01T08:02:55;100218.06;;;19.40;76.70
39177;BME280;24904;52.208;21.192;2022-08-01T08:08:01;100219.91;;;19.54;75.96
39177;BME280;24904;52.208;21.192;2022-08-01T08:13:04;100211.91;;;19.68;75.97
39177;BME280;24904;52.208;21.192;2022-08-01T08:18:07;100220.09;;;19.81;75.19
39177;BME280;24904;52.208;21.192;2022-08-01T08:23:10;100223.98;;;19.96;74.49
39177;BME280;24904;52.208;21.192;2022-08-01T08:28:28;100230.38;;;20.11;74.39
39177;BME280;24904;52.208;21.192;2022-08-01T08:33:31;100227.71;;;20.25;73.56
39177;BME280;24904;52.208;21.192;2022-08-01T08:38:34;100229.20;;;20.39;73.34
39177;BME280;24904;52.208;21.192;2022-08-01T08:43:38;100230.39;;;20.50;72.57
39177;BME280;24904;52.208;21.192;2022-08-01T08:48:41;100238.58;;;20.61;71.98
39177;BME280;24904;52.208;21.192;2022-08-01T08:53:46;100244.33;;;20.70;71.22
39177;BME280;24904;52.208;21.192;2022-08-01T08:58:51;100242.05;;;20.84;70.53
39177;BME280;24904;52.208;21.192;2022-08-01T09:03:54;100247.39;;;20.90;70.21
39177;BME280;24904;52.208;21.192;2022-08-01T09:08:58;100249.71;;;20.97;69.46
39177;BME280;24904;52.208;21.192;2022-08-01T09:14:09;100256.98;;;21.07;69.20
39177;BME280;24904;52.208;21.192;2022-08-01T09:19:14;100258.40;;;21.15;68.89
39177;BME280;24904;52.208;21.192;2022-08-01T09:24:18;100262.79;;;21.23;67.73
39177;BME280;24904;52.208;21.192;2022-08-01T09:29:22;100260.33;;;21.33;67.49
39177;BME280;24904;52.208;21.192;2022-08-01T09:34:27;100265.04;;;21.41;66.06
39177;BME280;24904;52.208;21.192;2022-08-01T09:39:31;100268.23;;;21.47;65.74
39177;BME280;24904;52.208;21.192;2022-08-01T09:44:40;100264.61;;;21.59;66.95
39177;BME280;24904;52.208;21.192;2022-08-01T09:49:44;100261.98;;;21.68;66.09
39177;BME280;24904;52.208;21.192;2022-08-01T09:54:54;100265.13;;;21.75;65.59
39177;BME280;24904;52.208;21.192;2022-08-01T09:59:59;100258.46;;;21.81;64.81
39177;BME280;24904;52.208;21.192;2022-08-01T10:05:04;100255.56;;;21.88;63.87
39177;BME280;24904;52.208;21.192;2022-08-01T10:10:12;100256.29;;;21.99;65.05
39177;BME280;24904;52.208;21.192;2022-08-01T10:15:16;100260.63;;;22.09;64.75
39177;BME280;24904;52.208;21.192;2022-08-01T10:20:21;100263.36;;;22.15;64.16
39177;BME280;24904;52.208;21.192;2022-08-01T10:25:28;100256.08;;;22.21;63.45
39177;BME280;24904;52.208;21.192;2022-08-01T10:30:32;100255.41;;;22.28;63.22
39177;BME280;24904;52.208;21.192;2022-08-01T10:35:36;100254.48;;;22.38;63.30
39177;BME280;24904;52.208;21.192;2022-08-01T10:40:40;100256.02;;;22.47;62.55
39177;BME280;24904;52.208;21.192;2022-08-01T10:45:46;100256.61;;;22.55;61.81
39177;BME280;24904;52.208;21.192;2022-08-01T10:50:51;100251.92;;;22.64;62.07
39177;BME280;24904;52.208;21.192;2022-08-01T10:56:00;100250.11;;;22.73;61.55
39177;BME280;24904;52.208;21.192;2022-08-01T11:01:15;100253.63;;;22.79;61.42
39177;BME280;24904;52.208;21.192;2022-08-01T11:06:24;100250.44;;;22.83;61.29
39177;BME280;24904;52.208;21.192;2022-08-01T11:11:28;100243.64;;;22.89;61.61
39177;BME280;24904;52.208;21.192;2022-08-01T11:16:32;100240.13;;;22.89;61.39
39177;BME280;24904;52.208;21.192;2022-08-01T11:21:59;100249.30;;;22.80;58.82
39177;BME280;24904;52.208;21.192;2022-08-01T11:27:18;100246.19;;;22.68;58.30
39177;BME280;24904;52.208;21.192;2022-08-01T11:32:27;100247.89;;;22.67;58.93
39177;BME280;24904;52.208;21.192;2022-08-01T11:37:30;100247.95;;;22.65;57.54
39177;BME280;24904;52.208;21.192;2022-08-01T11:42:34;100246.99;;;22.65;58.69
39177;BME280;24904;52.208;21.192;2022-08-01T11:47:47;100246.50;;;22.70;58.75
39177;BME280;24904;52.208;21.192;2022-08-01T11:52:57;100246.05;;;22.80;59.02
39177;BME280;24904;52.208;21.192;2022-08-01T11:58:02;100246.98;;;22.90;58.22
39177;BME280;24904;52.208;21.192;2022-08-01T12:03:07;100248.42;;;22.95;57.62
39177;BME280;24904;52.208;21.192;2022-08-01T12:08:11;100245.10;;;23.02;57.93
39177;BME280;24904;52.208;21.192;2022-08-01T12:13:14;100239.81;;;23.07;56.79
39177;BME280;24904;52.208;21.192;2022-08-01T12:18:18;100239.17;;;23.12;57.85
39177;BME280;24904;52.208;21.192;2022-08-01T12:23:21;100239.58;;;23.14;59.02
39177;BME280;24904;52.208;21.192;2022-08-01T12:28:24;100241.85;;;23.15;58.64
39177;BME280;24904;52.208;21.192;2022-08-01T12:33:27;100238.21;;;23.12;58.42
39177;BME280;24904;52.208;21.192;2022-08-01T12:38:31;100239.68;;;23.03;58.19
39177;BME280;24904;52.208;21.192;2022-08-01T12:43:35;100240.52;;;22.97;57.76
39177;BME280;24904;52.208;21.192;2022-08-01T12:48:38;100238.77;;;22.93;58.22
39177;BME280;24904;52.208;21.192;2022-08-01T12:53:41;100234.60;;;22.97;58.29
39177;BME280;24904;52.208;21.192;2022-08-01T12:58:44;100232.02;;;23.02;58.06
39177;BME280;24904;52.208;21.192;2022-08-01T13:04:00;100226.92;;;23.06;58.79
39177;BME280;24904;52.208;21.192;2022-08-01T13:09:07;100224.70;;;23.13;57.57
39177;BME280;24904;52.208;21.192;2022-08-01T13:14:11;100219.52;;;23.20;57.25
39177;BME280;24904;52.208;21.192;2022-08-01T13:19:43;100220.95;;;23.24;57.90
39177;BME280;24904;52.208;21.192;2022-08-01T13:24:46;100222.16;;;23.26;57.66
39177;BME280;24904;52.208;21.192;2022-08-01T13:29:49;100216.61;;;23.23;58.34
39177;BME280;24904;52.208;21.192;2022-08-01T13:35:02;100221.45;;;23.22;57.76
39177;BME280;24904;52.208;21.192;2022-08-01T13:40:08;100222.23;;;23.22;57.70
39177;BME280;24904;52.208;21.192;2022-08-01T13:45:11;100223.55;;;23.20;57.30
39177;BME280;24904;52.208;21.192;2022-08-01T13:50:14;100222.48;;;23.16;57.65
39177;BME280;24904;52.208;21.192;2022-08-01T13:55:19;100220.01;;;23.13;58.17
39177;BME280;24904;52.208;21.192;2022-08-01T14:00:22;100226.10;;;23.11;58.95
39177;BME280;24904;52.208;21.192;2022-08-01T14:05:25;100230.11;;;23.08;58.58
39177;BME280;24904;52.208;21.192;2022-08-01T14:10:28;100231.64;;;23.14;57.91
39177;BME280;24904;52.208;21.192;2022-08-01T14:15:32;100233.45;;;23.15;58.64
39177;BME280;24904;52.208;21.192;2022-08-01T14:20:36;100233.73;;;23.10;59.26
39177;BME280;24904;52.208;21.192;2022-08-01T14:25:40;100235.91;;;23.05;59.35
39177;BME280;24904;52.208;21.192;2022-08-01T14:30:43;100238.56;;;23.01;58.91
39177;BME280;24904;52.208;21.192;2022-08-01T14:35:47;100244.83;;;22.98;59.14
39177;BME280;24904;52.208;21.192;2022-08-01T14:40:50;100248.92;;;22.99;58.69
39177;BME280;24904;52.208;21.192;2022-08-01T14:45:53;100251.91;;;23.02;58.13
39177;BME280;24904;52.208;21.192;2022-08-01T14:50:56;100244.66;;;23.05;57.98
39177;BME280;24904;52.208;21.192;2022-08-01T14:56:00;100243.20;;;23.07;58.27
39177;BME280;24904;52.208;21.192;2022-08-01T15:01:03;100245.74;;;23.10;58.70
39177;BME280;24904;52.208;21.192;2022-08-01T15:06:07;100250.77;;;23.14;58.16
39177;BME280;24904;52.208;21.192;2022-08-01T15:11:13;100254.64;;;23.13;57.90
39177;BME280;24904;52.208;21.192;2022-08-01T15:16:16;100257.16;;;23.10;57.65
39177;BME280;24904;52.208;21.192;2022-08-01T15:21:19;100257.13;;;23.09;57.93
39177;BME280;24904;52.208;21.192;2022-08-01T15:26:22;100257.91;;;23.02;59.59
39177;BME280;24904;52.208;21.192;2022-08-01T15:31:25;100256.42;;;22.91;59.23
39177;BME280;24904;52.208;21.192;2022-08-01T15:36:28;100256.30;;;22.85;58.94
39177;BME280;24904;52.208;21.192;2022-08-01T15:41:32;100257.31;;;22.81;59.01
39177;BME280;24904;52.208;21.192;2022-08-01T15:46:35;100257.61;;;22.82;59.83
39177;BME280;24904;52.208;21.192;2022-08-01T15:51:38;100258.42;;;22.77;59.39
39177;BME280;24904;52.208;21.192;2022-08-01T15:56:41;100257.39;;;22.71;60.09
39177;BME280;24904;52.208;21.192;2022-08-01T16:01:44;100255.58;;;22.63;59.59
39177;BME280;24904;52.208;21.192;2022-08-01T16:06:48;100256.30;;;22.55;59.87
39177;BME280;24904;52.208;21.192;2022-08-01T16:11:51;100257.85;;;22.46;59.94
39177;BME280;24904;52.208;21.192;2022-08-01T16:16:54;100261.73;;;22.38;60.34
39177;BME280;24904;52.208;21.192;2022-08-01T16:21:57;100264.04;;;22.31;60.53
39177;BME280;24904;52.208;21.192;2022-08-01T16:27:00;100264.70;;;22.26;60.58
39177;BME280;24904;52.208;21.192;2022-08-01T16:32:04;100270.60;;;22.21;60.42
39177;BME280;24904;52.208;21.192;2022-08-01T16:37:08;100268.88;;;22.17;60.61
39177;BME280;24904;52.208;21.192;2022-08-01T16:42:11;100275.73;;;22.12;60.79
39177;BME280;24904;52.208;21.192;2022-08-01T16:47:14;100273.54;;;22.08;60.95
39177;BME280;24904;52.208;21.192;2022-08-01T16:52:17;100276.54;;;22.04;60.78
39177;BME280;24904;52.208;21.192;2022-08-01T16:57:20;100278.23;;;22.02;60.95
39177;BME280;24904;52.208;21.192;2022-08-01T17:02:23;100279.02;;;21.98;61.08
39177;BME280;24904;52.208;21.192;2022-08-01T17:07:26;100280.06;;;21.93;61.03
39177;BME280;24904;52.208;21.192;2022-08-01T17:12:30;100281.53;;;21.88;61.23
39177;BME280;24904;52.208;21.192;2022-08-01T17:17:33;100287.34;;;21.84;61.33
39177;BME280;24904;52.208;21.192;2022-08-01T17:22:36;100285.69;;;21.79;61.71
39177;BME280;24904;52.208;21.192;2022-08-01T17:27:39;100294.84;;;21.73;61.85
39177;BME280;24904;52.208;21.192;2022-08-01T17:32:44;100296.61;;;21.66;62.05
39177;BME280;24904;52.208;21.192;2022-08-01T17:37:49;100297.98;;;21.57;62.27
39177;BME280;24904;52.208;21.192;2022-08-01T17:42:52;100303.23;;;21.50;62.54
39177;BME280;24904;52.208;21.192;2022-08-01T17:47:55;100303.32;;;21.43;62.49
39177;BME280;24904;52.208;21.192;2022-08-01T17:52:58;100308.55;;;21.37;62.87
39177;BME280;24904;52.208;21.192;2022-08-01T17:58:02;100309.83;;;21.28;63.25
39177;BME280;24904;52.208;21.192;2022-08-01T18:03:07;100312.79;;;21.22;63.28
39177;BME280;24904;52.208;21.192;2022-08-01T18:08:10;100310.17;;;21.17;63.48
39177;BME280;24904;52.208;21.192;2022-08-01T18:13:14;100308.23;;;21.10;64.47
39177;BME280;24904;52.208;21.192;2022-08-01T18:18:18;100314.69;;;21.03;65.17
39177;BME280;24904;52.208;21.192;2022-08-01T18:23:22;100318.23;;;20.95;65.73
39177;BME280;24904;52.208;21.192;2022-08-01T18:28:25;100318.63;;;20.88;66.36
39177;BME280;24904;52.208;21.192;2022-08-01T18:33:29;100322.00;;;20.79;66.29
39177;BME280;24904;52.208;21.192;2022-08-01T18:38:32;100323.80;;;20.73;66.61
39177;BME280;24904;52.208;21.192;2022-08-01T18:43:36;100327.15;;;20.67;66.98
39177;BME280;24904;52.208;21.192;2022-08-01T18:48:39;100337.71;;;20.61;67.20
39177;BME280;24904;52.208;21.192;2022-08-01T18:53:42;100342.48;;;20.57;67.47
39177;BME280;24904;52.208;21.192;2022-08-01T18:58:45;100342.70;;;20.54;67.76
39177;BME280;24904;52.208;21.192;2022-08-01T19:03:48;100350.02;;;20.50;68.08
39177;BME280;24904;52.208;21.192;2022-08-01T19:08:52;100356.39;;;20.44;68.29
39177;BME280;24904;52.208;21.192;2022-08-01T19:13:55;100365.15;;;20.41;68.51
39177;BME280;24904;52.208;21.192;2022-08-01T19:18:58;100369.30;;;20.37;68.76
39177;BME280;24904;52.208;21.192;2022-08-01T19:24:02;100372.92;;;20.31;69.16
39177;BME280;24904;52.208;21.192;2022-08-01T19:29:23;100374.77;;;20.25;69.91
39177;BME280;24904;52.208;21.192;2022-08-01T19:34:27;100379.97;;;20.19;70.05
39177;BME280;24904;52.208;21.192;2022-08-01T19:39:30;100377.26;;;20.13;70.44
39177;BME280;24904;52.208;21.192;2022-08-01T19:44:33;100381.56;;;20.07;70.66
39177;BME280;24904;52.208;21.192;2022-08-01T19:49:39;100381.05;;;20.00;71.05
39177;BME280;24904;52.208;21.192;2022-08-01T19:54:43;100383.58;;;19.95;71.19
39177;BME280;24904;52.208;21.192;2022-08-01T19:59:47;100378.47;;;19.90;71.21
39177;BME280;24904;52.208;21.192;2022-08-01T20:04:53;100377.52;;;19.87;71.26
39177;BME280;24904;52.208;21.192;2022-08-01T20:09:56;100386.48;;;19.84;71.51
39177;BME280;24904;52.208;21.192;2022-08-01T20:15:00;100387.02;;;19.82;72.04
39177;BME280;24904;52.208;21.192;2022-08-01T20:20:05;100390.77;;;19.78;72.76
39177;BME280;24904;52.208;21.192;2022-08-01T20:25:09;100385.65;;;19.74;73.22
39177;BME280;24904;52.208;21.192;2022-08-01T20:30:13;100394.60;;;19.69;73.49
39177;BME280;24904;52.208;21.192;2022-08-01T20:35:16;100389.96;;;19.64;73.41
39177;BME280;24904;52.208;21.192;2022-08-01T20:40:19;100391.88;;;19.61;73.71
39177;BME280;24904;52.208;21.192;2022-08-01T20:45:24;100392.52;;;19.58;73.88
39177;BME280;24904;52.208;21.192;2022-08-01T20:50:28;100389.80;;;19.54;74.32
39177;BME280;24904;52.208;21.192;2022-08-01T20:55:51;100390.17;;;19.51;74.72
39177;BME280;24904;52.208;21.192;2022-08-01T21:00:56;100391.38;;;19.48;74.98
39177;BME280;24904;52.208;21.192;2022-08-01T21:06:09;100391.80;;;19.44;74.94
39177;BME280;24904;52.208;21.192;2022-08-01T21:11:19;100396.29;;;19.42;75.29
39177;BME280;24904;52.208;21.192;2022-08-01T21:16:27;100394.92;;;19.39;75.56
39177;BME280;24904;52.208;21.192;2022-08-01T21:21:32;100404.03;;;19.38;75.88
39177;BME280;24904;52.208;21.192;2022-08-01T21:26:36;100401.33;;;19.35;75.97
39177;BME280;24904;52.208;21.192;2022-08-01T21:31:41;100403.17;;;19.31;75.94
39177;BME280;24904;52.208;21.192;2022-08-01T21:36:45;100403.08;;;19.28;76.30
39177;BME280;24904;52.208;21.192;2022-08-01T21:41:48;100399.50;;;19.24;76.23
39177;BME280;24904;52.208;21.192;2022-08-01T21:46:52;100403.88;;;19.21;76.50
39177;BME280;24904;52.208;21.192;2022-08-01T21:52:01;100409.43;;;19.19;76.82
39177;BME280;24904;52.208;21.192;2022-08-01T21:57:13;100407.73;;;19.17;76.93
39177;BME280;24904;52.208;21.192;2022-08-01T22:02:26;100405.73;;;19.14;77.19
39177;BME280;24904;52.208;21.192;2022-08-01T22:07:34;100405.77;;;19.12;77.55
39177;BME280;24904;52.208;21.192;2022-08-01T22:12:37;100405.83;;;19.09;77.68
39177;BME280;24904;52.208;21.192;2022-08-01T22:17:41;100404.94;;;19.07;77.70
39177;BME280;24904;52.208;21.192;2022-08-01T22:22:46;100406.77;;;19.04;77.82
39177;BME280;24904;52.208;21.192;2022-08-01T22:27:49;100407.64;;;19.00;77.89
39177;BME280;24904;52.208;21.192;2022-08-01T22:32:52;100409.07;;;18.96;77.92
39177;BME280;24904;52.208;21.192;2022-08-01T22:37:56;100414.39;;;18.93;77.96
39177;BME280;24904;52.208;21.192;2022-08-01T22:43:02;100419.63;;;18.90;78.04
39177;BME280;24904;52.208;21.192;2022-08-01T22:48:14;100426.67;;;18.91;78.08
39177;BME280;24904;52.208;21.192;2022-08-01T22:53:26;100427.16;;;18.87;78.00
39177;BME280;24904;52.208;21.192;2022-08-01T22:58:32;100427.59;;;18.82;78.21
39177;BME280;24904;52.208;21.192;2022-08-01T23:03:38;100426.60;;;18.77;78.05
39177;BME280;24904;52.208;21.192;2022-08-01T23:08:44;100429.23;;;18.73;78.05
39177;BME280;24904;52.208;21.192;2022-08-01T23:13:49;100429.73;;;18.67;78.18
39177;BME280;24904;52.208;21.192;2022-08-01T23:18:53;100428.80;;;18.61;78.25
39177;BME280;24904;52.208;21.192;2022-08-01T23:23:57;100427.77;;;18.58;78.64
39177;BME280;24904;52.208;21.192;2022-08-01T23:29:02;100428.50;;;18.56;78.89
39177;BME280;24904;52.208;21.192;2022-08-01T23:34:05;100430.23;;;18.50;78.98
39177;BME280;24904;52.208;21.192;2022-08-01T23:39:08;100431.83;;;18.46;79.12
39177;BME280;24904;52.208;21.192;2022-08-01T23:44:12;100429.81;;;18.39;79.25
39177;BME280;24904;52.208;21.192;2022-08-01T23:49:15;100427.02;;;18.32;79.50
39177;BME280;24904;52.208;21.192;2022-08-01T23:54:18;100426.78;;;18.27;79.57
39177;BME280;24904;52.208;21.192;2022-08-01T23:59:21;100435.77;;;18.19;79.53
